sensor_id;sensor_type;location;lat;lon;timestamp;P1;durP1;ratioP1;P2;durP2;ratioP2
54193;SDS011;40102;50.906;6.972;2023-04-03T00:01:50;3.05;;;1.83;;
54193;SDS011;40102;50.906;6.972;2023-04-03T00:04:15;3.15;;;1.50;;
54193;SDS011;40102;50.906;6.972;2023-04-03T00:06:41;2.67;;;1.40;;
54193;SDS011;40102;50.906;6.972;2023-04-03T00:09:06;3.33;;;1.50;;
54193;SDS011;40102;50.906;6.972;2023-04-03T00:11:31;2.33;;;1.40;;
54193;SDS011;40102;50.906;6.972;2023-04-03T00:13:57;3.72;;;1.70;;
54193;SDS011;40102;50.906;6.972;2023-04-03T00:16:22;5.65;;;1.80;;
54193;SDS011;40102;50.906;6.972;2023-04-03T00:18:47;2.10;;;1.45;;
54193;SDS011;40102;50.906;6.972;2023-04-03T00:21:13;2.63;;;1.60;;
54193;SDS011;40102;50.906;6.972;2023-04-03T00:23:39;2.17;;;1.55;;
54193;SDS011;40102;50.906;6.972;2023-04-03T00:26:05;3.50;;;1.70;;
54193;SDS011;40102;50.906;6.972;2023-04-03T00:28:30;2.88;;;1.90;;
54193;SDS011;40102;50.906;6.972;2023-04-03T00:30:56;1.88;;;1.50;;
54193;SDS011;40102;50.906;6.972;2023-04-03T00:33:21;1.90;;;1.30;;
54193;SDS011;40102;50.906;6.972;2023-04-03T00:35:47;3.70;;;1.80;;
54193;SDS011;40102;50.906;6.972;2023-04-03T00:38:13;4.75;;;2.05;;
54193;SDS011;40102;50.906;6.972;2023-04-03T00:40:41;3.22;;;1.90;;
54193;SDS011;40102;50.906;6.972;2023-04-03T00:43:12;2.95;;;1.60;;
54193;SDS011;40102;50.906;6.972;2023-04-03T00:45:41;2.95;;;1.75;;
54193;SDS011;40102;50.906;6.972;2023-04-03T00:48:10;2.80;;;1.90;;
54193;SDS011;40102;50.906;6.972;2023-04-03T00:50:39;4.53;;;1.98;;
54193;SDS011;40102;50.906;6.972;2023-04-03T00:53:06;4.93;;;1.90;;
54193;SDS011;40102;50.906;6.972;2023-04-03T00:55:36;3.80;;;2.05;;
54193;SDS011;40102;50.906;6.972;2023-04-03T00:58:03;3.42;;;2.08;;
54193;SDS011;40102;50.906;6.972;2023-04-03T01:00:30;2.95;;;1.80;;
54193;SDS011;40102;50.906;6.972;2023-04-03T01:02:55;4.20;;;1.95;;
54193;SDS011;40102;50.906;6.972;2023-04-03T01:05:21;3.00;;;1.75;;
54193;SDS011;40102;50.906;6.972;2023-04-03T01:07:47;4.30;;;1.90;;
54193;SDS011;40102;50.906;6.972;2023-04-03T01:10:15;3.05;;;1.85;;
54193;SDS011;40102;50.906;6.972;2023-04-03T01:12:43;1.85;;;1.40;;
54193;SDS011;40102;50.906;6.972;2023-04-03T01:15:11;2.65;;;1.73;;
54193;SDS011;40102;50.906;6.972;2023-04-03T01:17:44;4.68;;;1.85;;
54193;SDS011;40102;50.906;6.972;2023-04-03T01:22:56;2.53;;;1.67;;
54193;SDS011;40102;50.906;6.972;2023-04-03T01:25:32;2.97;;;1.65;;
54193;SDS011;40102;50.906;6.972;2023-04-03T01:27:58;2.67;;;1.50;;
54193;SDS011;40102;50.906;6.972;2023-04-03T01:30:25;3.10;;;1.98;;
54193;SDS011;40102;50.906;6.972;2023-04-03T01:32:55;3.03;;;1.60;;
54193;SDS011;40102;50.906;6.972;2023-04-03T01:35:21;2.63;;;1.60;;
54193;SDS011;40102;50.906;6.972;2023-04-03T01:37:47;3.20;;;1.60;;
54193;SDS011;40102;50.906;6.972;2023-04-03T01:40:12;3.05;;;1.63;;
54193;SDS011;40102;50.906;6.972;2023-04-03T01:42:37;2.10;;;1.40;;
54193;SDS011;40102;50.906;6.972;2023-04-03T01:45:03;2.10;;;1.45;;
54193;SDS011;40102;50.906;6.972;2023-04-03T01:47:29;2.22;;;1.20;;
54193;SDS011;40102;50.906;6.972;2023-04-03T01:49:54;3.65;;;1.25;;
54193;SDS011;40102;50.906;6.972;2023-04-03T01:52:20;2.33;;;1.40;;
54193;SDS011;40102;50.906;6.972;2023-04-03T01:54:45;3.28;;;1.50;;
54193;SDS011;40102;50.906;6.972;2023-04-03T01:57:11;2.75;;;1.52;;
54193;SDS011;40102;50.906;6.972;2023-04-03T01:59:37;1.85;;;1.40;;
54193;SDS011;40102;50.906;6.972;2023-04-03T02:02:03;2.97;;;1.65;;
54193;SDS011;40102;50.906;6.972;2023-04-03T02:04:28;3.33;;;1.40;;
54193;SDS011;40102;50.906;6.972;2023-04-03T02:06:54;2.92;;;1.45;;
54193;SDS011;40102;50.906;6.972;2023-04-03T02:09:19;2.40;;;1.55;;
54193;SDS011;40102;50.906;6.972;2023-04-03T02:11:44;1.65;;;1.30;;
54193;SDS011;40102;50.906;6.972;2023-04-03T02:14:10;2.00;;;1.20;;
54193;SDS011;40102;50.906;6.972;2023-04-03T02:16:35;2.47;;;1.63;;
54193;SDS011;40102;50.906;6.972;2023-04-03T02:19:00;2.80;;;1.60;;
54193;SDS011;40102;50.906;6.972;2023-04-03T02:21:26;3.05;;;1.60;;
54193;SDS011;40102;50.906;6.972;2023-04-03T02:23:51;3.50;;;1.77;;
54193;SDS011;40102;50.906;6.972;2023-04-03T02:26:17;2.80;;;1.88;;
54193;SDS011;40102;50.906;6.972;2023-04-03T02:28:42;4.35;;;1.70;;
54193;SDS011;40102;50.906;6.972;2023-04-03T02:31:08;2.58;;;1.90;;
54193;SDS011;40102;50.906;6.972;2023-04-03T02:33:34;2.88;;;1.80;;
54193;SDS011;40102;50.906;6.972;2023-04-03T02:36:03;2.63;;;1.80;;
54193;SDS011;40102;50.906;6.972;2023-04-03T02:38:30;3.10;;;1.80;;
54193;SDS011;40102;50.906;6.972;2023-04-03T02:41:08;2.75;;;1.80;;
54193;SDS011;40102;50.906;6.972;2023-04-03T02:43:35;2.27;;;1.63;;
54193;SDS011;40102;50.906;6.972;2023-04-03T02:46:01;4.10;;;2.28;;
54193;SDS011;40102;50.906;6.972;2023-04-03T02:48:27;2.80;;;2.00;;
54193;SDS011;40102;50.906;6.972;2023-04-03T02:50:52;4.40;;;2.30;;
54193;SDS011;40102;50.906;6.972;2023-04-03T02:53:18;2.78;;;2.00;;
54193;SDS011;40102;50.906;6.972;2023-04-03T02:55:44;4.32;;;1.95;;
54193;SDS011;40102;50.906;6.972;2023-04-03T02:58:10;3.22;;;1.70;;
54193;SDS011;40102;50.906;6.972;2023-04-03T03:00:35;4.72;;;2.05;;
54193;SDS011;40102;50.906;6.972;2023-04-03T03:03:01;5.82;;;2.15;;
54193;SDS011;40102;50.906;6.972;2023-04-03T03:05:27;3.13;;;1.90;;
54193;SDS011;40102;50.906;6.972;2023-04-03T03:07:52;4.82;;;2.30;;
54193;SDS011;40102;50.906;6.972;2023-04-03T03:10:18;3.17;;;2.03;;
54193;SDS011;40102;50.906;6.972;2023-04-03T03:12:43;3.97;;;1.92;;
54193;SDS011;40102;50.906;6.972;2023-04-03T03:15:12;3.03;;;2.03;;
54193;SDS011;40102;50.906;6.972;2023-04-03T03:17:37;2.40;;;2.10;;
54193;SDS011;40102;50.906;6.972;2023-04-03T03:20:06;3.80;;;2.10;;
54193;SDS011;40102;50.906;6.972;2023-04-03T03:22:33;3.35;;;2.03;;
54193;SDS011;40102;50.906;6.972;2023-04-03T03:25:00;3.47;;;2.50;;
54193;SDS011;40102;50.906;6.972;2023-04-03T03:27:26;3.28;;;2.40;;
54193;SDS011;40102;50.906;6.972;2023-04-03T03:29:51;4.15;;;2.10;;
54193;SDS011;40102;50.906;6.972;2023-04-03T03:32:17;3.47;;;2.00;;
54193;SDS011;40102;50.906;6.972;2023-04-03T03:34:42;3.25;;;2.10;;
54193;SDS011;40102;50.906;6.972;2023-04-03T03:37:07;4.15;;;2.20;;
54193;SDS011;40102;50.906;6.972;2023-04-03T03:39:33;4.63;;;2.38;;
54193;SDS011;40102;50.906;6.972;2023-04-03T03:41:58;3.70;;;2.30;;
54193;SDS011;40102;50.906;6.972;2023-04-03T03:44:23;4.03;;;2.22;;
54193;SDS011;40102;50.906;6.972;2023-04-03T03:46:49;2.50;;;1.80;;
54193;SDS011;40102;50.906;6.972;2023-04-03T03:49:14;3.42;;;2.20;;
54193;SDS011;40102;50.906;6.972;2023-04-03T03:51:40;3.13;;;1.92;;
54193;SDS011;40102;50.906;6.972;2023-04-03T03:54:05;2.25;;;1.80;;
54193;SDS011;40102;50.906;6.972;2023-04-03T03:56:32;4.07;;;2.20;;
54193;SDS011;40102;50.906;6.972;2023-04-03T03:58:58;2.70;;;1.80;;
54193;SDS011;40102;50.906;6.972;2023-04-03T04:01:24;3.58;;;1.80;;
54193;SDS011;40102;50.906;6.972;2023-04-03T04:03:49;2.88;;;1.70;;
54193;SDS011;40102;50.906;6.972;2023-04-03T04:06:15;4.30;;;2.00;;
54193;SDS011;40102;50.906;6.972;2023-04-03T04:08:41;2.53;;;1.60;;
54193;SDS011;40102;50.906;6.972;2023-04-03T04:11:07;2.55;;;1.75;;
54193;SDS011;40102;50.906;6.972;2023-04-03T04:13:32;2.95;;;1.90;;
54193;SDS011;40102;50.906;6.972;2023-04-03T04:15:58;2.45;;;1.63;;
54193;SDS011;40102;50.906;6.972;2023-04-03T04:18:23;2.85;;;1.70;;
54193;SDS011;40102;50.906;6.972;2023-04-03T04:20:49;3.55;;;1.75;;
54193;SDS011;40102;50.906;6.972;2023-04-03T04:23:18;3.63;;;1.80;;
54193;SDS011;40102;50.906;6.972;2023-04-03T04:25:44;3.47;;;1.83;;
54193;SDS011;40102;50.906;6.972;2023-04-03T04:28:10;3.53;;;1.98;;
54193;SDS011;40102;50.906;6.972;2023-04-03T04:30:36;2.95;;;2.00;;
54193;SDS011;40102;50.906;6.972;2023-04-03T04:33:01;4.15;;;1.92;;
54193;SDS011;40102;50.906;6.972;2023-04-03T04:35:27;3.95;;;1.77;;
54193;SDS011;40102;50.906;6.972;2023-04-03T04:37:52;3.70;;;1.98;;
54193;SDS011;40102;50.906;6.972;2023-04-03T04:40:18;2.97;;;1.60;;
54193;SDS011;40102;50.906;6.972;2023-04-03T04:42:43;3.63;;;1.90;;
54193;SDS011;40102;50.906;6.972;2023-04-03T04:45:08;1.83;;;1.48;;
54193;SDS011;40102;50.906;6.972;2023-04-03T04:47:34;4.50;;;1.70;;
54193;SDS011;40102;50.906;6.972;2023-04-03T04:50:00;2.38;;;1.40;;
54193;SDS011;40102;50.906;6.972;2023-04-03T04:52:25;2.90;;;1.33;;
54193;SDS011;40102;50.906;6.972;2023-04-03T04:54:50;3.03;;;1.55;;
54193;SDS011;40102;50.906;6.972;2023-04-03T04:57:16;3.28;;;1.40;;
54193;SDS011;40102;50.906;6.972;2023-04-03T04:59:42;2.97;;;1.48;;
54193;SDS011;40102;50.906;6.972;2023-04-03T05:02:07;3.42;;;1.60;;
54193;SDS011;40102;50.906;6.972;2023-04-03T05:04:33;3.15;;;1.30;;
54193;SDS011;40102;50.906;6.972;2023-04-03T05:06:58;3.08;;;1.38;;
54193;SDS011;40102;50.906;6.972;2023-04-03T05:09:24;4.07;;;1.60;;
54193;SDS011;40102;50.906;6.972;2023-04-03T05:11:50;4.15;;;1.50;;
54193;SDS011;40102;50.906;6.972;2023-04-03T05:14:16;2.10;;;1.55;;
54193;SDS011;40102;50.906;6.972;2023-04-03T05:16:41;4.45;;;1.60;;
54193;SDS011;40102;50.906;6.972;2023-04-03T05:19:07;2.38;;;1.48;;
54193;SDS011;40102;50.906;6.972;2023-04-03T05:21:32;2.45;;;1.30;;
54193;SDS011;40102;50.906;6.972;2023-04-03T05:24:01;2.22;;;1.50;;
54193;SDS011;40102;50.906;6.972;2023-04-03T05:26:28;4.70;;;1.58;;
54193;SDS011;40102;50.906;6.972;2023-04-03T05:28:54;2.90;;;1.50;;
54193;SDS011;40102;50.906;6.972;2023-04-03T05:31:20;1.83;;;1.40;;
54193;SDS011;40102;50.906;6.972;2023-04-03T05:33:45;2.15;;;0.98;;
54193;SDS011;40102;50.906;6.972;2023-04-03T05:36:11;5.28;;;1.42;;
54193;SDS011;40102;50.906;6.972;2023-04-03T05:38:37;1.95;;;1.25;;
54193;SDS011;40102;50.906;6.972;2023-04-03T05:41:03;2.08;;;1.02;;
54193;SDS011;40102;50.906;6.972;2023-04-03T05:43:28;3.58;;;1.40;;
54193;SDS011;40102;50.906;6.972;2023-04-03T05:45:54;1.52;;;1.08;;
54193;SDS011;40102;50.906;6.972;2023-04-03T05:48:19;3.47;;;1.30;;
54193;SDS011;40102;50.906;6.972;2023-04-03T05:50:45;2.13;;;1.40;;
54193;SDS011;40102;50.906;6.972;2023-04-03T05:53:14;5.07;;;1.42;;
54193;SDS011;40102;50.906;6.972;2023-04-03T05:55:44;2.13;;;1.60;;
54193;SDS011;40102;50.906;6.972;2023-04-03T05:58:09;3.17;;;1.30;;
54193;SDS011;40102;50.906;6.972;2023-04-03T06:00:34;2.58;;;1.15;;
54193;SDS011;40102;50.906;6.972;2023-04-03T06:03:00;4.13;;;1.50;;
54193;SDS011;40102;50.906;6.972;2023-04-03T06:05:25;2.55;;;1.25;;
54193;SDS011;40102;50.906;6.972;2023-04-03T06:07:51;3.13;;;1.50;;
54193;SDS011;40102;50.906;6.972;2023-04-03T06:10:16;3.30;;;1.42;;
54193;SDS011;40102;50.906;6.972;2023-04-03T06:12:42;2.42;;;1.27;;
54193;SDS011;40102;50.906;6.972;2023-04-03T06:15:09;3.13;;;1.50;;
54193;SDS011;40102;50.906;6.972;2023-04-03T06:17:35;6.72;;;1.65;;
54193;SDS011;40102;50.906;6.972;2023-04-03T06:20:02;1.23;;;1.13;;
54193;SDS011;40102;50.906;6.972;2023-04-03T06:22:28;3.63;;;1.52;;
54193;SDS011;40102;50.906;6.972;2023-04-03T06:24:54;3.45;;;1.48;;
54193;SDS011;40102;50.906;6.972;2023-04-03T06:27:21;3.22;;;1.42;;
54193;SDS011;40102;50.906;6.972;2023-04-03T06:29:46;4.68;;;1.30;;
54193;SDS011;40102;50.906;6.972;2023-04-03T06:32:11;2.63;;;1.42;;
54193;SDS011;40102;50.906;6.972;2023-04-03T06:34:37;2.78;;;1.40;;
54193;SDS011;40102;50.906;6.972;2023-04-03T06:37:02;2.88;;;1.13;;
54193;SDS011;40102;50.906;6.972;2023-04-03T06:39:28;2.85;;;1.42;;
54193;SDS011;40102;50.906;6.972;2023-04-03T06:41:54;3.85;;;1.27;;
54193;SDS011;40102;50.906;6.972;2023-04-03T06:44:20;3.67;;;1.60;;
54193;SDS011;40102;50.906;6.972;2023-04-03T06:46:45;3.58;;;1.30;;
54193;SDS011;40102;50.906;6.972;2023-04-03T06:49:11;4.78;;;1.35;;
54193;SDS011;40102;50.906;6.972;2023-04-03T06:51:37;3.90;;;1.13;;
54193;SDS011;40102;50.906;6.972;2023-04-03T06:54:03;1.65;;;1.02;;
54193;SDS011;40102;50.906;6.972;2023-04-03T06:56:31;2.03;;;1.00;;
54193;SDS011;40102;50.906;6.972;2023-04-03T06:58:56;2.15;;;1.13;;
54193;SDS011;40102;50.906;6.972;2023-04-03T07:01:26;3.20;;;1.77;;
54193;SDS011;40102;50.906;6.972;2023-04-03T07:03:53;4.55;;;1.00;;
54193;SDS011;40102;50.906;6.972;2023-04-03T07:06:20;3.72;;;1.00;;
54193;SDS011;40102;50.906;6.972;2023-04-03T07:08:45;2.10;;;0.90;;
54193;SDS011;40102;50.906;6.972;2023-04-03T07:11:13;2.05;;;0.90;;
54193;SDS011;40102;50.906;6.972;2023-04-03T07:13:39;4.97;;;0.90;;
54193;SDS011;40102;50.906;6.972;2023-04-03T07:16:05;1.35;;;0.80;;
54193;SDS011;40102;50.906;6.972;2023-04-03T07:18:34;3.80;;;1.15;;
54193;SDS011;40102;50.906;6.972;2023-04-03T07:20:59;2.53;;;0.95;;
54193;SDS011;40102;50.906;6.972;2023-04-03T07:23:25;2.20;;;1.02;;
54193;SDS011;40102;50.906;6.972;2023-04-03T07:25:51;2.92;;;1.25;;
54193;SDS011;40102;50.906;6.972;2023-04-03T07:28:17;4.47;;;1.05;;
54193;SDS011;40102;50.906;6.972;2023-04-03T07:30:48;2.72;;;1.02;;
54193;SDS011;40102;50.906;6.972;2023-04-03T07:33:19;2.38;;;0.90;;
54193;SDS011;40102;50.906;6.972;2023-04-03T07:35:46;1.52;;;1.00;;
54193;SDS011;40102;50.906;6.972;2023-04-03T07:38:12;1.75;;;0.90;;
54193;SDS011;40102;50.906;6.972;2023-04-03T07:40:38;5.05;;;1.15;;
54193;SDS011;40102;50.906;6.972;2023-04-03T07:43:03;1.45;;;0.90;;
54193;SDS011;40102;50.906;6.972;2023-04-03T07:45:30;1.38;;;0.63;;
54193;SDS011;40102;50.906;6.972;2023-04-03T07:47:56;2.25;;;1.10;;
54193;SDS011;40102;50.906;6.972;2023-04-03T07:50:21;2.15;;;0.70;;
54193;SDS011;40102;50.906;6.972;2023-04-03T07:52:47;3.88;;;0.80;;
54193;SDS011;40102;50.906;6.972;2023-04-03T07:55:13;2.05;;;0.75;;
54193;SDS011;40102;50.906;6.972;2023-04-03T07:57:38;3.50;;;0.80;;
54193;SDS011;40102;50.906;6.972;2023-04-03T08:00:05;3.95;;;0.90;;
54193;SDS011;40102;50.906;6.972;2023-04-03T08:02:32;3.30;;;1.02;;
54193;SDS011;40102;50.906;6.972;2023-04-03T08:04:57;4.55;;;1.13;;
54193;SDS011;40102;50.906;6.972;2023-04-03T08:07:23;3.85;;;1.10;;
54193;SDS011;40102;50.906;6.972;2023-04-03T08:09:49;7.47;;;1.98;;
54193;SDS011;40102;50.906;6.972;2023-04-03T08:12:15;3.63;;;1.35;;
54193;SDS011;40102;50.906;6.972;2023-04-03T08:14:41;3.72;;;1.00;;
54193;SDS011;40102;50.906;6.972;2023-04-03T08:17:06;2.40;;;1.00;;
54193;SDS011;40102;50.906;6.972;2023-04-03T08:19:34;3.05;;;1.30;;
54193;SDS011;40102;50.906;6.972;2023-04-03T08:22:00;3.10;;;1.08;;
54193;SDS011;40102;50.906;6.972;2023-04-03T08:24:27;2.85;;;1.23;;
54193;SDS011;40102;50.906;6.972;2023-04-03T08:26:53;4.78;;;1.00;;
54193;SDS011;40102;50.906;6.972;2023-04-03T08:29:19;3.47;;;0.95;;
54193;SDS011;40102;50.906;6.972;2023-04-03T08:31:46;4.80;;;0.90;;
54193;SDS011;40102;50.906;6.972;2023-04-03T08:34:12;3.08;;;0.90;;
54193;SDS011;40102;50.906;6.972;2023-04-03T08:36:39;4.53;;;1.15;;
54193;SDS011;40102;50.906;6.972;2023-04-03T08:39:05;3.75;;;0.90;;
54193;SDS011;40102;50.906;6.972;2023-04-03T08:41:40;3.83;;;1.50;;
54193;SDS011;40102;50.906;6.972;2023-04-03T08:46:56;2.63;;;0.90;;
54193;SDS011;40102;50.906;6.972;2023-04-03T08:50:00;4.93;;;0.90;;
54193;SDS011;40102;50.906;6.972;2023-04-03T08:52:36;1.45;;;0.80;;
54193;SDS011;40102;50.906;6.972;2023-04-03T08:55:07;1.90;;;0.77;;
54193;SDS011;40102;50.906;6.972;2023-04-03T08:57:44;2.63;;;0.95;;
54193;SDS011;40102;50.906;6.972;2023-04-03T09:02:49;2.05;;;0.90;;
54193;SDS011;40102;50.906;6.972;2023-04-03T09:05:20;1.90;;;0.60;;
54193;SDS011;40102;50.906;6.972;2023-04-03T09:08:21;2.05;;;0.70;;
54193;SDS011;40102;50.906;6.972;2023-04-03T09:10:47;2.45;;;0.93;;
54193;SDS011;40102;50.906;6.972;2023-04-03T09:13:26;4.95;;;0.80;;
54193;SDS011;40102;50.906;6.972;2023-04-03T09:16:12;1.42;;;0.73;;
54193;SDS011;40102;50.906;6.972;2023-04-03T09:19:07;2.50;;;0.98;;
54193;SDS011;40102;50.906;6.972;2023-04-03T09:22:16;1.92;;;0.73;;
54193;SDS011;40102;50.906;6.972;2023-04-03T09:24:47;1.48;;;0.90;;
54193;SDS011;40102;50.906;6.972;2023-04-03T09:27:17;1.55;;;0.73;;
54193;SDS011;40102;50.906;6.972;2023-04-03T09:29:43;1.33;;;0.70;;
54193;SDS011;40102;50.906;6.972;2023-04-03T09:32:30;2.15;;;0.80;;
54193;SDS011;40102;50.906;6.972;2023-04-03T09:34:59;3.58;;;0.88;;
54193;SDS011;40102;50.906;6.972;2023-04-03T09:37:40;2.47;;;0.73;;
54193;SDS011;40102;50.906;6.972;2023-04-03T09:43:02;1.83;;;0.77;;
54193;SDS011;40102;50.906;6.972;2023-04-03T09:45:45;2.35;;;0.90;;
54193;SDS011;40102;50.906;6.972;2023-04-03T09:58:45;4.22;;;0.75;;
54193;SDS011;40102;50.906;6.972;2023-04-03T10:04:09;1.95;;;0.77;;
54193;SDS011;40102;50.906;6.972;2023-04-03T10:06:38;3.05;;;0.80;;
54193;SDS011;40102;50.906;6.972;2023-04-03T10:14:36;3.70;;;0.80;;
54193;SDS011;40102;50.906;6.972;2023-04-03T10:25:10;2.15;;;0.63;;
54193;SDS011;40102;50.906;6.972;2023-04-03T10:27:42;3.53;;;0.73;;
54193;SDS011;40102;50.906;6.972;2023-04-03T10:43:42;2.05;;;0.70;;
54193;SDS011;40102;50.906;6.972;2023-04-03T10:46:15;1.02;;;0.60;;
54193;SDS011;40102;50.906;6.972;2023-04-03T10:57:36;1.15;;;0.50;;
54193;SDS011;40102;50.906;6.972;2023-04-03T11:00:06;2.78;;;1.20;;
54193;SDS011;40102;50.906;6.972;2023-04-03T11:05:40;1.38;;;0.82;;
54193;SDS011;40102;50.906;6.972;2023-04-03T11:08:12;1.15;;;0.70;;
54193;SDS011;40102;50.906;6.972;2023-04-03T11:10:45;4.53;;;0.70;;
54193;SDS011;40102;50.906;6.972;2023-04-03T11:13:22;3.20;;;0.90;;
54193;SDS011;40102;50.906;6.972;2023-04-03T11:15:55;1.88;;;0.55;;
54193;SDS011;40102;50.906;6.972;2023-04-03T11:18:25;1.58;;;0.70;;
54193;SDS011;40102;50.906;6.972;2023-04-03T11:21:02;1.63;;;0.52;;
54193;SDS011;40102;50.906;6.972;2023-04-03T11:23:35;8.07;;;0.68;;
54193;SDS011;40102;50.906;6.972;2023-04-03T11:26:14;2.15;;;0.80;;
54193;SDS011;40102;50.906;6.972;2023-04-03T11:28:42;0.47;;;0.40;;
54193;SDS011;40102;50.906;6.972;2023-04-03T11:31:13;1.30;;;0.80;;
54193;SDS011;40102;50.906;6.972;2023-04-03T11:33:51;2.13;;;0.52;;
54193;SDS011;40102;50.906;6.972;2023-04-03T11:39:37;2.97;;;0.60;;
54193;SDS011;40102;50.906;6.972;2023-04-03T11:42:14;2.38;;;0.50;;
54193;SDS011;40102;50.906;6.972;2023-04-03T11:44:42;1.00;;;0.50;;
54193;SDS011;40102;50.906;6.972;2023-04-03T11:47:08;1.17;;;0.50;;
54193;SDS011;40102;50.906;6.972;2023-04-03T11:49:53;1.48;;;0.50;;
54193;SDS011;40102;50.906;6.972;2023-04-03T12:19:54;0.65;;;0.40;;
54193;SDS011;40102;50.906;6.972;2023-04-03T12:32:24;2.53;;;0.73;;
54193;SDS011;40102;50.906;6.972;2023-04-03T12:38:01;1.77;;;0.50;;
54193;SDS011;40102;50.906;6.972;2023-04-03T12:46:47;0.82;;;0.40;;
54193;SDS011;40102;50.906;6.972;2023-04-03T12:49:20;2.95;;;0.50;;
54193;SDS011;40102;50.906;6.972;2023-04-03T12:51:48;1.52;;;0.70;;
54193;SDS011;40102;50.906;6.972;2023-04-03T12:54:14;1.40;;;0.55;;
54193;SDS011;40102;50.906;6.972;2023-04-03T12:56:40;1.27;;;0.65;;
54193;SDS011;40102;50.906;6.972;2023-04-03T12:59:21;1.65;;;0.60;;
54193;SDS011;40102;50.906;6.972;2023-04-03T13:01:58;2.15;;;0.60;;
54193;SDS011;40102;50.906;6.972;2023-04-03T13:04:28;0.95;;;0.60;;
54193;SDS011;40102;50.906;6.972;2023-04-03T13:06:56;1.52;;;0.50;;
54193;SDS011;40102;50.906;6.972;2023-04-03T13:09:26;0.63;;;0.45;;
54193;SDS011;40102;50.906;6.972;2023-04-03T13:12:01;1.42;;;0.50;;
54193;SDS011;40102;50.906;6.972;2023-04-03T13:14:32;1.50;;;0.60;;
54193;SDS011;40102;50.906;6.972;2023-04-03T13:17:14;1.23;;;0.68;;
54193;SDS011;40102;50.906;6.972;2023-04-03T13:19:41;1.52;;;0.60;;
54193;SDS011;40102;50.906;6.972;2023-04-03T13:22:10;8.95;;;0.90;;
54193;SDS011;40102;50.906;6.972;2023-04-03T13:24:43;6.13;;;0.80;;
54193;SDS011;40102;50.906;6.972;2023-04-03T13:27:12;16.15;;;3.30;;
54193;SDS011;40102;50.906;6.972;2023-04-03T13:29:38;1.17;;;0.60;;
54193;SDS011;40102;50.906;6.972;2023-04-03T13:32:04;1.40;;;0.55;;
54193;SDS011;40102;50.906;6.972;2023-04-03T13:34:38;2.08;;;0.55;;
54193;SDS011;40102;50.906;6.972;2023-04-03T13:37:11;0.95;;;0.47;;
54193;SDS011;40102;50.906;6.972;2023-04-03T13:39:45;1.23;;;0.68;;
54193;SDS011;40102;50.906;6.972;2023-04-03T13:42:33;1.58;;;0.75;;
54193;SDS011;40102;50.906;6.972;2023-04-03T13:45:21;2.78;;;0.80;;
54193;SDS011;40102;50.906;6.972;2023-04-03T13:47:49;1.63;;;0.80;;
54193;SDS011;40102;50.906;6.972;2023-04-03T13:52:59;1.17;;;0.60;;
54193;SDS011;40102;50.906;6.972;2023-04-03T14:03:07;1.75;;;0.70;;
54193;SDS011;40102;50.906;6.972;2023-04-03T14:05:38;0.98;;;0.52;;
54193;SDS011;40102;50.906;6.972;2023-04-03T14:08:03;2.97;;;0.77;;
54193;SDS011;40102;50.906;6.972;2023-04-03T14:10:29;1.45;;;0.80;;
54193;SDS011;40102;50.906;6.972;2023-04-03T14:12:55;3.00;;;1.17;;
54193;SDS011;40102;50.906;6.972;2023-04-03T14:15:26;2.65;;;0.80;;
54193;SDS011;40102;50.906;6.972;2023-04-03T14:17:53;2.38;;;0.85;;
54193;SDS011;40102;50.906;6.972;2023-04-03T14:20:21;1.55;;;0.80;;
54193;SDS011;40102;50.906;6.972;2023-04-03T14:22:48;4.47;;;0.77;;
54193;SDS011;40102;50.906;6.972;2023-04-03T14:25:14;0.93;;;0.50;;
54193;SDS011;40102;50.906;6.972;2023-04-03T14:27:42;1.20;;;0.80;;
54193;SDS011;40102;50.906;6.972;2023-04-03T14:30:14;2.20;;;1.00;;
54193;SDS011;40102;50.906;6.972;2023-04-03T14:32:45;3.92;;;0.80;;
54193;SDS011;40102;50.906;6.972;2023-04-03T14:35:15;1.27;;;0.63;;
54193;SDS011;40102;50.906;6.972;2023-04-03T14:37:41;2.47;;;0.80;;
54193;SDS011;40102;50.906;6.972;2023-04-03T14:40:08;3.47;;;0.88;;
54193;SDS011;40102;50.906;6.972;2023-04-03T14:42:37;1.10;;;0.80;;
54193;SDS011;40102;50.906;6.972;2023-04-03T14:45:04;1.45;;;0.98;;
54193;SDS011;40102;50.906;6.972;2023-04-03T14:47:32;2.15;;;0.90;;
54193;SDS011;40102;50.906;6.972;2023-04-03T14:50:02;1.55;;;0.82;;
54193;SDS011;40102;50.906;6.972;2023-04-03T14:52:33;2.92;;;0.80;;
54193;SDS011;40102;50.906;6.972;2023-04-03T14:55:01;1.85;;;0.70;;
54193;SDS011;40102;50.906;6.972;2023-04-03T14:57:28;3.22;;;0.80;;
54193;SDS011;40102;50.906;6.972;2023-04-03T14:59:55;1.70;;;0.80;;
54193;SDS011;40102;50.906;6.972;2023-04-03T15:04:49;2.97;;;0.80;;
54193;SDS011;40102;50.906;6.972;2023-04-03T15:07:15;2.75;;;0.82;;
54193;SDS011;40102;50.906;6.972;2023-04-03T15:09:43;1.95;;;0.90;;
54193;SDS011;40102;50.906;6.972;2023-04-03T15:12:09;1.20;;;0.70;;
54193;SDS011;40102;50.906;6.972;2023-04-03T15:14:35;2.92;;;0.77;;
54193;SDS011;40102;50.906;6.972;2023-04-03T15:17:01;1.67;;;0.70;;
54193;SDS011;40102;50.906;6.972;2023-04-03T15:19:27;1.70;;;0.85;;
54193;SDS011;40102;50.906;6.972;2023-04-03T15:21:53;1.95;;;0.90;;
54193;SDS011;40102;50.906;6.972;2023-04-03T15:24:18;2.05;;;0.90;;
54193;SDS011;40102;50.906;6.972;2023-04-03T15:26:44;2.10;;;0.70;;
54193;SDS011;40102;50.906;6.972;2023-04-03T15:29:09;2.13;;;0.77;;
54193;SDS011;40102;50.906;6.972;2023-04-03T15:31:35;2.40;;;0.80;;
54193;SDS011;40102;50.906;6.972;2023-04-03T15:34:00;1.45;;;0.73;;
54193;SDS011;40102;50.906;6.972;2023-04-03T15:36:26;1.80;;;0.88;;
54193;SDS011;40102;50.906;6.972;2023-04-03T15:38:51;2.05;;;0.60;;
54193;SDS011;40102;50.906;6.972;2023-04-03T15:41:17;1.48;;;0.63;;
54193;SDS011;40102;50.906;6.972;2023-04-03T15:43:42;1.23;;;0.73;;
54193;SDS011;40102;50.906;6.972;2023-04-03T15:46:08;1.25;;;0.60;;
54193;SDS011;40102;50.906;6.972;2023-04-03T15:48:34;2.22;;;0.80;;
54193;SDS011;40102;50.906;6.972;2023-04-03T15:51:01;1.42;;;0.80;;
54193;SDS011;40102;50.906;6.972;2023-04-03T15:53:26;2.42;;;0.75;;
54193;SDS011;40102;50.906;6.972;2023-04-03T15:55:51;2.95;;;0.63;;
54193;SDS011;40102;50.906;6.972;2023-04-03T15:58:17;1.42;;;0.70;;
54193;SDS011;40102;50.906;6.972;2023-04-03T16:00:43;1.27;;;0.70;;
54193;SDS011;40102;50.906;6.972;2023-04-03T16:03:10;2.13;;;0.60;;
54193;SDS011;40102;50.906;6.972;2023-04-03T16:05:37;1.83;;;1.17;;
54193;SDS011;40102;50.906;6.972;2023-04-03T16:08:03;2.80;;;0.80;;
54193;SDS011;40102;50.906;6.972;2023-04-03T16:10:30;1.90;;;0.80;;
54193;SDS011;40102;50.906;6.972;2023-04-03T16:12:56;1.67;;;0.90;;
54193;SDS011;40102;50.906;6.972;2023-04-03T16:15:21;3.92;;;1.58;;
54193;SDS011;40102;50.906;6.972;2023-04-03T16:17:47;1.83;;;0.90;;
54193;SDS011;40102;50.906;6.972;2023-04-03T16:20:13;2.55;;;0.70;;
54193;SDS011;40102;50.906;6.972;2023-04-03T16:22:39;2.88;;;1.02;;
54193;SDS011;40102;50.906;6.972;2023-04-03T16:25:06;1.52;;;0.90;;
54193;SDS011;40102;50.906;6.972;2023-04-03T16:27:32;2.17;;;0.80;;
54193;SDS011;40102;50.906;6.972;2023-04-03T16:29:58;2.33;;;0.80;;
54193;SDS011;40102;50.906;6.972;2023-04-03T16:32:24;2.75;;;1.00;;
54193;SDS011;40102;50.906;6.972;2023-04-03T16:34:52;2.50;;;0.77;;
54193;SDS011;40102;50.906;6.972;2023-04-03T16:37:18;2.15;;;0.60;;
54193;SDS011;40102;50.906;6.972;2023-04-03T16:39:44;4.65;;;0.80;;
54193;SDS011;40102;50.906;6.972;2023-04-03T16:42:09;2.22;;;0.75;;
54193;SDS011;40102;50.906;6.972;2023-04-03T16:44:35;1.90;;;0.73;;
54193;SDS011;40102;50.906;6.972;2023-04-03T16:47:01;3.38;;;0.90;;
54193;SDS011;40102;50.906;6.972;2023-04-03T16:49:27;1.52;;;0.80;;
54193;SDS011;40102;50.906;6.972;2023-04-03T16:51:57;1.50;;;0.73;;
54193;SDS011;40102;50.906;6.972;2023-04-03T16:54:22;1.02;;;0.85;;
54193;SDS011;40102;50.906;6.972;2023-04-03T16:56:48;1.40;;;0.77;;
54193;SDS011;40102;50.906;6.972;2023-04-03T16:59:13;1.67;;;1.00;;